sensor_id;sensor_type;location;lat;lon;timestamp;pressure;altitude;pressure_sealevel;temperature;humidity
11223;BME280;5668;52.012;8.724;2023-03-20T00:00:43;100383.16;;;12.24;95.80
11223;BME280;5668;52.012;8.724;2023-03-20T00:03:13;100373.78;;;12.21;96.22
11223;BME280;5668;52.012;8.724;2023-03-20T00:05:40;100372.22;;;12.19;96.55
11223;BME280;5668;52.012;8.724;2023-03-20T00:08:08;100371.53;;;12.17;96.42
11223;BME280;5668;52.012;8.724;2023-03-20T00:10:37;100378.53;;;12.16;96.63
11223;BME280;5668;52.012;8.724;2023-03-20T00:13:06;100383.00;;;12.14;96.61
11223;BME280;5668;52.012;8.724;2023-03-20T00:15:38;100386.66;;;12.12;96.45
11223;BME280;5668;52.012;8.724;2023-03-20T00:18:15;100387.03;;;12.07;95.59
11223;BME280;5668;52.012;8.724;2023-03-20T00:20:43;100401.19;;;12.03;96.56
11223;BME280;5668;52.012;8.724;2023-03-20T00:23:11;100395.41;;;11.99;96.34
11223;BME280;5668;52.012;8.724;2023-03-20T00:25:39;100390.19;;;11.99;96.85
11223;BME280;5668;52.012;8.724;2023-03-20T00:28:28;100389.38;;;11.99;96.62
11223;BME280;5668;52.012;8.724;2023-03-20T00:30:57;100393.75;;;11.98;96.38
11223;BME280;5668;52.012;8.724;2023-03-20T00:33:26;100393.75;;;11.98;96.53
11223;BME280;5668;52.012;8.724;2023-03-20T00:35:53;100396.34;;;11.98;96.24
11223;BME280;5668;52.012;8.724;2023-03-20T00:38:21;100395.41;;;11.99;96.41
11223;BME280;5668;52.012;8.724;2023-03-20T00:40:48;100400.63;;;11.99;95.49
11223;BME280;5668;52.012;8.724;2023-03-20T00:43:15;100392.06;;;11.97;95.39
11223;BME280;5668;52.012;8.724;2023-03-20T00:45:44;100393.75;;;11.98;94.72
11223;BME280;5668;52.012;8.724;2023-03-20T00:48:13;100383.53;;;11.95;94.36
11223;BME280;5668;52.012;8.724;2023-03-20T00:50:43;100380.94;;;11.95;94.03
11223;BME280;5668;52.012;8.724;2023-03-20T00:53:10;100380.25;;;11.93;93.91
11223;BME280;5668;52.012;8.724;2023-03-20T00:55:38;100376.09;;;11.91;93.66
11223;BME280;5668;52.012;8.724;2023-03-20T00:58:08;100377.13;;;11.88;94.33
11223;BME280;5668;52.012;8.724;2023-03-20T01:00:38;100377.38;;;11.85;94.02
11223;BME280;5668;52.012;8.724;2023-03-20T01:03:15;100380.91;;;11.84;93.45
11223;BME280;5668;52.012;8.724;2023-03-20T01:05:44;100380.19;;;11.82;94.07
11223;BME280;5668;52.012;8.724;2023-03-20T01:08:13;100393.22;;;11.82;93.85
11223;BME280;5668;52.012;8.724;2023-03-20T01:10:41;100389.88;;;11.80;93.32
11223;BME280;5668;52.012;8.724;2023-03-20T01:13:19;100391.78;;;11.78;93.36
11223;BME280;5668;52.012;8.724;2023-03-20T01:15:47;100387.63;;;11.76;94.06
11223;BME280;5668;52.012;8.724;2023-03-20T01:18:16;100385.13;;;11.74;93.89
11223;BME280;5668;52.012;8.724;2023-03-20T01:20:45;100387.00;;;11.72;94.42
11223;BME280;5668;52.012;8.724;2023-03-20T01:23:12;100389.72;;;11.71;94.36
11223;BME280;5668;52.012;8.724;2023-03-20T01:25:40;100389.72;;;11.71;95.04
11223;BME280;5668;52.012;8.724;2023-03-20T01:28:14;100383.69;;;11.70;94.56
11223;BME280;5668;52.012;8.724;2023-03-20T01:30:43;100369.44;;;11.63;94.36
11223;BME280;5668;52.012;8.724;2023-03-20T01:33:15;100368.94;;;11.58;94.39
11223;BME280;5668;52.012;8.724;2023-03-20T01:35:45;100374.94;;;11.47;94.34
11223;BME280;5668;52.012;8.724;2023-03-20T01:38:14;100369.13;;;11.44;95.19
11223;BME280;5668;52.012;8.724;2023-03-20T01:40:49;100376.31;;;11.40;95.32
11223;BME280;5668;52.012;8.724;2023-03-20T01:43:20;100376.03;;;11.32;95.50
11223;BME280;5668;52.012;8.724;2023-03-20T01:45:55;100385.13;;;11.27;95.95
11223;BME280;5668;52.012;8.724;2023-03-20T01:48:26;100387.09;;;11.23;96.46
11223;BME280;5668;52.012;8.724;2023-03-20T01:51:03;100383.91;;;11.19;97.04
11223;BME280;5668;52.012;8.724;2023-03-20T01:53:30;100392.53;;;11.20;97.24
11223;BME280;5668;52.012;8.724;2023-03-20T01:55:59;100396.38;;;11.27;97.76
11223;BME280;5668;52.012;8.724;2023-03-20T01:58:32;100400.50;;;11.30;97.37
11223;BME280;5668;52.012;8.724;2023-03-20T02:01:02;100414.84;;;11.35;97.11
11223;BME280;5668;52.012;8.724;2023-03-20T02:03:30;100420.66;;;11.39;96.96
11223;BME280;5668;52.012;8.724;2023-03-20T02:05:58;100430.88;;;11.42;97.73
11223;BME280;5668;52.012;8.724;2023-03-20T02:08:29;100425.66;;;11.42;97.40
11223;BME280;5668;52.012;8.724;2023-03-20T02:10:58;100424.84;;;11.41;97.83
11223;BME280;5668;52.012;8.724;2023-03-20T02:13:29;100426.59;;;11.41;97.62
11223;BME280;5668;52.012;8.724;2023-03-20T02:16:03;100425.88;;;11.39;98.06
11223;BME280;5668;52.012;8.724;2023-03-20T02:18:31;100422.53;;;11.37;98.33
11223;BME280;5668;52.012;8.724;2023-03-20T02:21:40;100422.53;;;11.37;98.00
11223;BME280;5668;52.012;8.724;2023-03-20T02:24:32;100418.16;;;11.37;98.86
11223;BME280;5668;52.012;8.724;2023-03-20T02:27:14;100416.50;;;11.36;98.64
11223;BME280;5668;52.012;8.724;2023-03-20T02:30:12;100405.25;;;11.36;98.40
11223;BME280;5668;52.012;8.724;2023-03-20T02:33:17;100411.94;;;11.40;98.97
11223;BME280;5668;52.012;8.724;2023-03-20T02:41:52;100408.16;;;11.44;99.28
11223;BME280;5668;52.012;8.724;2023-03-20T02:44:25;100406.28;;;11.46;99.04
11223;BME280;5668;52.012;8.724;2023-03-20T02:46:58;100404.41;;;11.48;98.63
11223;BME280;5668;52.012;8.724;2023-03-20T02:49:42;100395.66;;;11.49;98.34
11223;BME280;5668;52.012;8.724;2023-03-20T02:52:17;100393.88;;;11.49;98.42
11223;BME280;5668;52.012;8.724;2023-03-20T02:54:53;100394.94;;;11.47;98.03
11223;BME280;5668;52.012;8.724;2023-03-20T02:57:31;100388.88;;;11.46;97.91
11223;BME280;5668;52.012;8.724;2023-03-20T03:02:41;100397.16;;;11.40;98.55
11223;BME280;5668;52.012;8.724;2023-03-20T03:05:15;100394.53;;;11.40;98.98
11223;BME280;5668;52.012;8.724;2023-03-20T03:07:46;100402.34;;;11.40;98.90
11223;BME280;5668;52.012;8.724;2023-03-20T03:10:22;100404.59;;;11.45;99.27
11223;BME280;5668;52.012;8.724;2023-03-20T03:12:53;100406.06;;;11.49;98.92
11223;BME280;5668;52.012;8.724;2023-03-20T03:15:26;100412.94;;;11.50;98.66
11223;BME280;5668;52.012;8.724;2023-03-20T03:17:57;100411.88;;;11.52;98.75
11223;BME280;5668;52.012;8.724;2023-03-20T03:20:30;100416.25;;;11.52;99.34
11223;BME280;5668;52.012;8.724;2023-03-20T03:22:59;100419.56;;;11.54;99.37
11223;BME280;5668;52.012;8.724;2023-03-20T03:25:31;100408.22;;;11.55;99.22
11223;BME280;5668;52.012;8.724;2023-03-20T03:28:02;100417.69;;;11.56;99.57
11223;BME280;5668;52.012;8.724;2023-03-20T03:30:35;100411.66;;;11.55;99.28
11223;BME280;5668;52.012;8.724;2023-03-20T03:33:11;100408.13;;;11.56;99.34
11223;BME280;5668;52.012;8.724;2023-03-20T03:35:42;100413.31;;;11.56;99.54
11223;BME280;5668;52.012;8.724;2023-03-20T03:38:25;100416.03;;;11.55;99.55
11223;BME280;5668;52.012;8.724;2023-03-20T03:41:06;100416.25;;;11.52;99.78
11223;BME280;5668;52.012;8.724;2023-03-20T03:43:42;100412.09;;;11.49;100.00
11223;BME280;5668;52.012;8.724;2023-03-20T03:46:15;100413.75;;;11.50;100.00
11223;BME280;5668;52.012;8.724;2023-03-20T03:48:46;100420.75;;;11.50;100.00
11223;BME280;5668;52.012;8.724;2023-03-20T03:51:18;100416.34;;;11.50;100.00
11223;BME280;5668;52.012;8.724;2023-03-20T03:53:51;100412.94;;;11.50;100.00
11223;BME280;5668;52.012;8.724;2023-03-20T03:56:24;100418.34;;;11.47;100.00
11223;BME280;5668;52.012;8.724;2023-03-20T03:58:54;100417.72;;;11.43;100.00
11223;BME280;5668;52.012;8.724;2023-03-20T04:01:23;100415.25;;;11.42;100.00
11223;BME280;5668;52.012;8.724;2023-03-20T04:03:55;100404.00;;;11.41;100.00
11223;BME280;5668;52.012;8.724;2023-03-20T04:06:27;100407.56;;;11.40;100.00
11223;BME280;5668;52.012;8.724;2023-03-20T04:08:54;100396.22;;;11.41;100.00
11223;BME280;5668;52.012;8.724;2023-03-20T04:11:24;100396.91;;;11.43;100.00
11223;BME280;5668;52.012;8.724;2023-03-20T04:13:53;100391.59;;;11.45;100.00
11223;BME280;5668;52.012;8.724;2023-03-20T04:16:22;100393.16;;;11.47;100.00
11223;BME280;5668;52.012;8.724;2023-03-20T04:18:50;100390.75;;;11.44;100.00
11223;BME280;5668;52.012;8.724;2023-03-20T04:21:17;100383.06;;;11.43;100.00
11223;BME280;5668;52.012;8.724;2023-03-20T04:23:45;100370.88;;;11.43;100.00
11223;BME280;5668;52.012;8.724;2023-03-20T04:26:12;100371.50;;;11.47;100.00
11223;BME280;5668;52.012;8.724;2023-03-20T04:28:40;100375.03;;;11.46;100.00
11223;BME280;5668;52.012;8.724;2023-03-20T04:31:08;100367.97;;;11.48;100.00
11223;BME280;5668;52.012;8.724;2023-03-20T04:33:35;100371.50;;;11.47;100.00
11223;BME280;5668;52.012;8.724;2023-03-20T04:36:03;100375.03;;;11.46;100.00
11223;BME280;5668;52.012;8.724;2023-03-20T04:38:31;100363.59;;;11.48;99.74
11223;BME280;5668;52.012;8.724;2023-03-20T04:40:58;100374.84;;;11.49;99.55
11223;BME280;5668;52.012;8.724;2023-03-20T04:43:25;100370.06;;;11.43;99.51
11223;BME280;5668;52.012;8.724;2023-03-20T04:45:54;100376.09;;;11.43;99.42
11223;BME280;5668;52.012;8.724;2023-03-20T04:48:21;100381.28;;;11.43;99.69
11223;BME280;5668;52.012;8.724;2023-03-20T04:50:48;100376.44;;;11.39;98.99
11223;BME280;5668;52.012;8.724;2023-03-20T04:53:16;100374.88;;;11.36;99.59
11223;BME280;5668;52.012;8.724;2023-03-20T04:55:44;100370.94;;;11.31;99.49
11223;BME280;5668;52.012;8.724;2023-03-20T04:58:13;100379.47;;;11.33;99.48
11223;BME280;5668;52.012;8.724;2023-03-20T05:00:40;100374.47;;;11.30;99.53
11223;BME280;5668;52.012;8.724;2023-03-20T05:03:08;100364.91;;;11.30;99.45
11223;BME280;5668;52.012;8.724;2023-03-20T05:05:36;100368.34;;;11.31;99.20
11223;BME280;5668;52.012;8.724;2023-03-20T05:08:04;100382.41;;;11.28;98.83
11223;BME280;5668;52.012;8.724;2023-03-20T05:10:31;100377.31;;;11.27;98.48
11223;BME280;5668;52.012;8.724;2023-03-20T05:12:58;100383.66;;;11.22;98.96
11223;BME280;5668;52.012;8.724;2023-03-20T05:15:26;100390.44;;;11.25;98.53
11223;BME280;5668;52.012;8.724;2023-03-20T05:17:53;100388.03;;;11.22;98.67
11223;BME280;5668;52.012;8.724;2023-03-20T05:20:22;100388.16;;;11.20;98.81
11223;BME280;5668;52.012;8.724;2023-03-20T05:22:50;100382.13;;;11.20;98.84
11223;BME280;5668;52.012;8.724;2023-03-20T05:25:17;100384.59;;;11.21;98.90
11223;BME280;5668;52.012;8.724;2023-03-20T05:27:45;100379.41;;;11.21;98.64
11223;BME280;5668;52.012;8.724;2023-03-20T05:30:13;100380.34;;;11.20;98.55
11223;BME280;5668;52.012;8.724;2023-03-20T05:32:40;100384.00;;;11.18;97.96
11223;BME280;5668;52.012;8.724;2023-03-20T05:35:09;100384.22;;;11.15;97.99
11223;BME280;5668;52.012;8.724;2023-03-20T05:37:38;100385.03;;;11.15;97.95
11223;BME280;5668;52.012;8.724;2023-03-20T05:40:10;100388.47;;;11.16;97.66
11223;BME280;5668;52.012;8.724;2023-03-20T05:42:39;100393.78;;;11.14;97.67
11223;BME280;5668;52.012;8.724;2023-03-20T05:45:07;100396.38;;;11.14;97.68
11223;BME280;5668;52.012;8.724;2023-03-20T05:47:34;100393.09;;;11.12;97.61
11223;BME280;5668;52.012;8.724;2023-03-20T05:50:02;100405.13;;;11.13;97.27
11223;BME280;5668;52.012;8.724;2023-03-20T05:52:30;100405.13;;;11.13;97.47
11223;BME280;5668;52.012;8.724;2023-03-20T05:54:58;100413.66;;;11.15;97.38
11223;BME280;5668;52.012;8.724;2023-03-20T05:57:25;100413.16;;;11.10;96.92
11223;BME280;5668;52.012;8.724;2023-03-20T05:59:53;100414.09;;;11.09;97.16
11223;BME280;5668;52.012;8.724;2023-03-20T06:02:20;100404.63;;;11.08;97.22
11223;BME280;5668;52.012;8.724;2023-03-20T06:04:47;100409.09;;;11.06;97.35
11223;BME280;5668;52.012;8.724;2023-03-20T06:07:14;100400.59;;;11.04;96.98
11223;BME280;5668;52.012;8.724;2023-03-20T06:09:42;100406.50;;;11.06;97.12
11223;BME280;5668;52.012;8.724;2023-03-20T06:12:10;100400.47;;;11.06;97.10
11223;BME280;5668;52.012;8.724;2023-03-20T06:14:37;100412.63;;;11.05;96.75
11223;BME280;5668;52.012;8.724;2023-03-20T06:17:05;100413.69;;;11.03;96.68
11223;BME280;5668;52.012;8.724;2023-03-20T06:19:32;100412.88;;;11.02;96.65
11223;BME280;5668;52.012;8.724;2023-03-20T06:21:59;100417.97;;;11.04;96.29
11223;BME280;5668;52.012;8.724;2023-03-20T06:24:27;100417.84;;;11.05;96.02
11223;BME280;5668;52.012;8.724;2023-03-20T06:26:54;100419.31;;;11.09;96.14
11223;BME280;5668;52.012;8.724;2023-03-20T06:29:22;100408.06;;;11.09;96.11
11223;BME280;5668;52.012;8.724;2023-03-20T06:31:50;100416.50;;;11.12;96.27
11223;BME280;5668;52.012;8.724;2023-03-20T06:34:17;100408.78;;;11.11;95.92
11223;BME280;5668;52.012;8.724;2023-03-20T06:36:44;100412.09;;;11.13;95.98
11223;BME280;5668;52.012;8.724;2023-03-20T06:39:13;100414.00;;;11.11;95.45
11223;BME280;5668;52.012;8.724;2023-03-20T06:41:41;100408.91;;;11.09;95.64
11223;BME280;5668;52.012;8.724;2023-03-20T06:44:08;100413.38;;;11.07;94.98
11223;BME280;5668;52.012;8.724;2023-03-20T06:46:37;100412.44;;;11.08;95.77
11223;BME280;5668;52.012;8.724;2023-03-20T06:49:04;100413.25;;;11.09;95.57
11223;BME280;5668;52.012;8.724;2023-03-20T06:51:31;100410.75;;;11.07;95.72
11223;BME280;5668;52.012;8.724;2023-03-20T06:53:59;100409.09;;;11.06;95.70
11223;BME280;5668;52.012;8.724;2023-03-20T06:56:26;100416.91;;;11.06;96.09
11223;BME280;5668;52.012;8.724;2023-03-20T06:58:53;100424.50;;;11.09;95.86
11223;BME280;5668;52.012;8.724;2023-03-20T07:01:20;100424.50;;;11.09;95.58
11223;BME280;5668;52.012;8.724;2023-03-20T07:03:49;100426.16;;;11.10;96.25
11223;BME280;5668;52.012;8.724;2023-03-20T07:06:17;100427.00;;;11.11;95.94
11223;BME280;5668;52.012;8.724;2023-03-20T07:08:44;100422.63;;;11.11;95.79
11223;BME280;5668;52.012;8.724;2023-03-20T07:11:11;100429.59;;;11.11;95.70
11223;BME280;5668;52.012;8.724;2023-03-20T07:13:39;100430.31;;;11.13;95.78
11223;BME280;5668;52.012;8.724;2023-03-20T07:16:07;100433.13;;;11.10;95.48
11223;BME280;5668;52.012;8.724;2023-03-20T07:18:34;100432.41;;;11.08;95.53
11223;BME280;5668;52.012;8.724;2023-03-20T07:21:04;100438.44;;;11.08;95.78
11223;BME280;5668;52.012;8.724;2023-03-20T07:23:33;100435.75;;;11.10;95.83
11223;BME280;5668;52.012;8.724;2023-03-20T07:26:00;100439.91;;;11.12;95.72
11223;BME280;5668;52.012;8.724;2023-03-20T07:28:28;100455.50;;;11.12;95.43
11223;BME280;5668;52.012;8.724;2023-03-20T07:30:55;100464.13;;;11.13;95.22
11223;BME280;5668;52.012;8.724;2023-03-20T07:33:22;100461.66;;;11.11;95.85
11223;BME280;5668;52.012;8.724;2023-03-20T07:35:51;100465.09;;;11.12;95.44
11223;BME280;5668;52.012;8.724;2023-03-20T07:38:21;100458.41;;;11.08;95.47
11223;BME280;5668;52.012;8.724;2023-03-20T07:40:48;100449.03;;;11.05;96.01
11223;BME280;5668;52.012;8.724;2023-03-20T07:43:16;100451.78;;;11.04;95.50
11223;BME280;5668;52.012;8.724;2023-03-20T07:45:43;100455.50;;;11.00;95.56
11223;BME280;5668;52.012;8.724;2023-03-20T07:48:10;100451.56;;;10.94;95.73
11223;BME280;5668;52.012;8.724;2023-03-20T07:50:37;100456.78;;;10.94;95.79
11223;BME280;5668;52.012;8.724;2023-03-20T07:53:04;100448.88;;;10.96;96.17
11223;BME280;5668;52.012;8.724;2023-03-20T07:55:34;100454.28;;;10.93;95.92
11223;BME280;5668;52.012;8.724;2023-03-20T07:58:01;100446.38;;;10.94;96.01
11223;BME280;5668;52.012;8.724;2023-03-20T08:00:28;100467.19;;;10.94;95.99
11223;BME280;5668;52.012;8.724;2023-03-20T08:02:56;100465.06;;;10.99;95.94
11223;BME280;5668;52.012;8.724;2023-03-20T08:05:23;100462.47;;;10.99;95.70
11223;BME280;5668;52.012;8.724;2023-03-20T08:07:50;100467.78;;;10.98;95.40
11223;BME280;5668;52.012;8.724;2023-03-20T08:10:18;100466.53;;;11.03;95.69
11223;BME280;5668;52.012;8.724;2023-03-20T08:12:48;100461.44;;;11.02;94.87
11223;BME280;5668;52.012;8.724;2023-03-20T08:15:15;100458.00;;;11.01;94.65
11223;BME280;5668;52.012;8.724;2023-03-20T08:17:42;100471.66;;;11.05;94.48
11223;BME280;5668;52.012;8.724;2023-03-20T08:20:12;100472.34;;;11.07;94.41
11223;BME280;5668;52.012;8.724;2023-03-20T08:22:41;100474.84;;;11.08;94.16
11223;BME280;5668;52.012;8.724;2023-03-20T08:25:10;100477.25;;;11.11;93.89
11223;BME280;5668;52.012;8.724;2023-03-20T08:27:37;100477.44;;;11.08;93.61
11223;BME280;5668;52.012;8.724;2023-03-20T08:30:07;100478.38;;;11.07;93.59
11223;BME280;5668;52.012;8.724;2023-03-20T08:32:34;100480.97;;;11.07;93.87
11223;BME280;5668;52.012;8.724;2023-03-20T08:35:03;100484.41;;;11.08;93.60
11223;BME280;5668;52.012;8.724;2023-03-20T08:37:30;100477.56;;;11.07;93.70
11223;BME280;5668;52.012;8.724;2023-03-20T08:39:57;100488.59;;;11.10;94.01
11223;BME280;5668;52.012;8.724;2023-03-20T08:42:25;100497.13;;;11.12;93.50
11223;BME280;5668;52.012;8.724;2023-03-20T08:44:52;100492.63;;;11.14;93.38
11223;BME280;5668;52.012;8.724;2023-03-20T08:47:21;100495.97;;;11.16;93.65
11223;BME280;5668;52.012;8.724;2023-03-20T08:49:48;100487.31;;;11.16;93.54
11223;BME280;5668;52.012;8.724;2023-03-20T08:52:16;100493.25;;;11.18;93.46
11223;BME280;5668;52.012;8.724;2023-03-20T08:54:43;100491.50;;;11.18;93.10
11223;BME280;5668;52.012;8.724;2023-03-20T08:57:11;100484.38;;;11.20;93.28
11223;BME280;5668;52.012;8.724;2023-03-20T08:59:38;100487.63;;;11.24;92.46
11223;BME280;5668;52.012;8.724;2023-03-20T09:02:06;100483.16;;;11.26;92.73
11223;BME280;5668;52.012;8.724;2023-03-20T09:04:34;100487.28;;;11.29;91.75
11223;BME280;5668;52.012;8.724;2023-03-20T09:07:02;100477.94;;;11.26;90.80
11223;BME280;5668;52.012;8.724;2023-03-20T09:09:29;100482.22;;;11.27;90.45
11223;BME280;5668;52.012;8.724;2023-03-20T09:11:57;100481.88;;;11.32;91.01
11223;BME280;5668;52.012;8.724;2023-03-20T09:14:26;100481.44;;;11.38;90.32
11223;BME280;5668;52.012;8.724;2023-03-20T09:16:54;100489.25;;;11.38;89.62
11223;BME280;5668;52.012;8.724;2023-03-20T09:19:21;100483.94;;;11.39;88.09
11223;BME280;5668;52.012;8.724;2023-03-20T09:21:49;100483.13;;;11.39;87.34
11223;BME280;5668;52.012;8.724;2023-03-20T09:24:17;100488.53;;;11.36;87.27
11223;BME280;5668;52.012;8.724;2023-03-20T09:26:44;100482.72;;;11.32;87.26
11223;BME280;5668;52.012;8.724;2023-03-20T09:29:11;100494.56;;;11.36;86.53
11223;BME280;5668;52.012;8.724;2023-03-20T09:31:38;100486.66;;;11.38;86.13
11223;BME280;5668;52.012;8.724;2023-03-20T09:34:06;100496.47;;;11.34;86.23
11223;BME280;5668;52.012;8.724;2023-03-20T09:36:33;100493.22;;;11.31;85.22
11223;BME280;5668;52.012;8.724;2023-03-20T09:39:02;100500.94;;;11.32;85.40
11223;BME280;5668;52.012;8.724;2023-03-20T09:41:30;100498.22;;;11.34;85.08
11223;BME280;5668;52.012;8.724;2023-03-20T09:44:09;100507.91;;;11.32;84.83
11223;BME280;5668;52.012;8.724;2023-03-20T09:46:56;100512.28;;;11.31;84.61
11223;BME280;5668;52.012;8.724;2023-03-20T09:49:38;100505.41;;;11.30;85.17
11223;BME280;5668;52.012;8.724;2023-03-20T09:52:17;100508.94;;;11.29;84.71
11223;BME280;5668;52.012;8.724;2023-03-20T09:54:49;100508.09;;;11.29;84.41
11223;BME280;5668;52.012;8.724;2023-03-20T09:57:21;100513.44;;;11.27;84.43
11223;BME280;5668;52.012;8.724;2023-03-20T09:59:54;100512.38;;;11.30;85.14
11223;BME280;5668;52.012;8.724;2023-03-20T10:02:34;100513.84;;;11.34;85.17
11223;BME280;5668;52.012;8.724;2023-03-20T10:05:05;100509.34;;;11.36;85.21
11223;BME280;5668;52.012;8.724;2023-03-20T10:07:38;100503.19;;;11.37;85.03
11223;BME280;5668;52.012;8.724;2023-03-20T10:10:11;100509.34;;;11.36;84.67
11223;BME280;5668;52.012;8.724;2023-03-20T10:12:58;100506.03;;;11.34;84.00
11223;BME280;5668;52.012;8.724;2023-03-20T10:15:39;100503.44;;;11.34;84.23
11223;BME280;5668;52.012;8.724;2023-03-20T10:18:16;100502.59;;;11.33;83.60
11223;BME280;5668;52.012;8.724;2023-03-20T10:20:49;100508.31;;;11.38;83.33
11223;BME280;5668;52.012;8.724;2023-03-20T10:23:25;100502.91;;;11.41;83.76
11223;BME280;5668;52.012;8.724;2023-03-20T10:25:57;100499.47;;;11.41;83.77
11223;BME280;5668;52.012;8.724;2023-03-20T10:28:30;100501.00;;;11.43;83.62
11223;BME280;5668;52.012;8.724;2023-03-20T10:31:21;100494.84;;;11.44;82.69
11223;BME280;5668;52.012;8.724;2023-03-20T10:34:00;100491.66;;;11.41;82.17
11223;BME280;5668;52.012;8.724;2023-03-20T10:36:40;100493.31;;;11.42;81.99
11223;BME280;5668;52.012;8.724;2023-03-20T10:39:17;100499.34;;;11.42;81.40
11223;BME280;5668;52.012;8.724;2023-03-20T10:41:52;100498.28;;;11.45;81.40
11223;BME280;5668;52.012;8.724;2023-03-20T10:44:36;100493.09;;;11.45;81.21
11223;BME280;5668;52.012;8.724;2023-03-20T10:47:07;100482.47;;;11.48;80.56
11223;BME280;5668;52.012;8.724;2023-03-20T10:49:39;100475.16;;;11.53;80.20
11223;BME280;5668;52.012;8.724;2023-03-20T10:52:10;100478.59;;;11.53;79.86
11223;BME280;5668;52.012;8.724;2023-03-20T10:54:40;100476.81;;;11.54;79.86
11223;BME280;5668;52.012;8.724;2023-03-20T10:57:17;100472.13;;;11.59;80.36
11223;BME280;5668;52.012;8.724;2023-03-20T10:59:48;100470.97;;;11.63;79.89
11223;BME280;5668;52.012;8.724;2023-03-20T11:02:18;100473.69;;;11.61;78.71
11223;BME280;5668;52.012;8.724;2023-03-20T11:04:46;100471.91;;;11.62;78.52
11223;BME280;5668;52.012;8.724;2023-03-20T11:07:22;100470.13;;;11.62;78.60
11223;BME280;5668;52.012;8.724;2023-03-20T11:10:11;100470.88;;;11.64;78.24
11223;BME280;5668;52.012;8.724;2023-03-20T11:12:44;100460.44;;;11.64;77.60
11223;BME280;5668;52.012;8.724;2023-03-20T11:15:21;100469.19;;;11.63;78.12
11223;BME280;5668;52.012;8.724;2023-03-20T11:17:56;100467.19;;;11.67;77.53
11223;BME280;5668;52.012;8.724;2023-03-20T11:20:25;100464.38;;;11.70;77.08
11223;BME280;5668;52.012;8.724;2023-03-20T11:22:58;100457.16;;;11.74;77.50
11223;BME280;5668;52.012;8.724;2023-03-20T11:25:32;100447.41;;;11.77;76.97
11223;BME280;5668;52.012;8.724;2023-03-20T11:28:20;100439.97;;;11.84;76.83
11223;BME280;5668;52.012;8.724;2023-03-20T11:30:48;100431.59;;;11.91;77.29
11223;BME280;5668;52.012;8.724;2023-03-20T11:33:16;100430.41;;;11.95;76.70
11223;BME280;5668;52.012;8.724;2023-03-20T11:35:46;100430.00;;;12.01;76.47
11223;BME280;5668;52.012;8.724;2023-03-20T11:38:20;100436.63;;;12.06;76.72
11223;BME280;5668;52.012;8.724;2023-03-20T11:40:49;100435.22;;;12.13;75.88
11223;BME280;5668;52.012;8.724;2023-03-20T11:43:20;100441.16;;;12.15;75.11
11223;BME280;5668;52.012;8.724;2023-03-20T11:45:49;100435.94;;;12.15;73.77
11223;BME280;5668;52.012;8.724;2023-03-20T11:48:19;100435.94;;;12.15;74.02
11223;BME280;5668;52.012;8.724;2023-03-20T11:50:50;100438.44;;;12.16;74.86
11223;BME280;5668;52.012;8.724;2023-03-20T11:53:24;100428.84;;;12.17;74.01
11223;BME280;5668;52.012;8.724;2023-03-20T11:56:04;100431.56;;;12.15;73.45
11223;BME280;5668;52.012;8.724;2023-03-20T11:58:36;100435.00;;;12.16;73.07
11223;BME280;5668;52.012;8.724;2023-03-20T12:01:07;100426.94;;;12.19;72.11
11223;BME280;5668;52.012;8.724;2023-03-20T12:03:42;100425.06;;;12.21;72.34
11223;BME280;5668;52.012;8.724;2023-03-20T12:06:15;100415.09;;;12.15;72.29
11223;BME280;5668;52.012;8.724;2023-03-20T12:08:47;100419.03;;;12.20;72.49
11223;BME280;5668;52.012;8.724;2023-03-20T12:11:25;100413.69;;;12.22;72.37
11223;BME280;5668;52.012;8.724;2023-03-20T12:13:59;100412.03;;;12.21;72.95
11223;BME280;5668;52.012;8.724;2023-03-20T12:16:28;100412.97;;;12.20;72.75
11223;BME280;5668;52.012;8.724;2023-03-20T12:18:58;100414.88;;;12.18;72.10
11223;BME280;5668;52.012;8.724;2023-03-20T12:21:32;100412.88;;;12.21;72.59
11223;BME280;5668;52.012;8.724;2023-03-20T12:24:05;100409.91;;;12.26;73.03
11223;BME280;5668;52.012;8.724;2023-03-20T12:26:38;100411.09;;;12.33;72.99
11223;BME280;5668;52.012;8.724;2023-03-20T12:29:19;100411.72;;;12.36;71.41
11223;BME280;5668;52.012;8.724;2023-03-20T12:31:52;100420.16;;;12.40;72.16
11223;BME280;5668;52.012;8.724;2023-03-20T12:34:24;100417.19;;;12.45;71.22
11223;BME280;5668;52.012;8.724;2023-03-20T12:36:54;100421.44;;;12.46;70.11
11223;BME280;5668;52.012;8.724;2023-03-20T12:39:24;100418.72;;;12.47;69.12
11223;BME280;5668;52.012;8.724;2023-03-20T12:42:02;100410.41;;;12.42;69.50
11223;BME280;5668;52.012;8.724;2023-03-20T12:44:40;100414.94;;;12.40;68.91
11223;BME280;5668;52.012;8.724;2023-03-20T12:47:24;100412.53;;;12.37;68.30
11223;BME280;5668;52.012;8.724;2023-03-20T12:50:03;100411.59;;;12.38;68.77
11223;BME280;5668;52.012;8.724;2023-03-20T12:52:41;100405.31;;;12.40;68.34
11223;BME280;5668;52.012;8.724;2023-03-20T12:55:34;100407.81;;;12.42;68.05
11223;BME280;5668;52.012;8.724;2023-03-20T12:58:17;100409.34;;;12.45;67.42
11223;BME280;5668;52.012;8.724;2023-03-20T13:00:56;100407.34;;;12.37;66.09
11223;BME280;5668;52.012;8.724;2023-03-20T13:03:40;100409.09;;;12.36;66.83
11223;BME280;5668;52.012;8.724;2023-03-20T13:06:15;100407.91;;;12.40;67.49
11223;BME280;5668;52.012;8.724;2023-03-20T13:11:59;100409.47;;;12.43;67.60
11223;BME280;5668;52.012;8.724;2023-03-20T13:14:37;100398.31;;;12.41;67.51
11223;BME280;5668;52.012;8.724;2023-03-20T13:17:17;100403.19;;;12.46;67.03
11223;BME280;5668;52.012;8.724;2023-03-20T13:19:57;100404.03;;;12.46;67.46
11223;BME280;5668;52.012;8.724;2023-03-20T13:22:37;100402.84;;;12.50;67.75
11223;BME280;5668;52.012;8.724;2023-03-20T13:25:23;100400.94;;;12.52;67.70
11223;BME280;5668;52.012;8.724;2023-03-20T13:27:55;100405.44;;;12.50;67.19
11223;BME280;5668;52.012;8.724;2023-03-20T13:30:33;100401.44;;;12.46;67.87
11223;BME280;5668;52.012;8.724;2023-03-20T13:33:09;100399.28;;;12.40;67.43